Time;durP1;ratioP1;P1;durP2;ratioP2;P2;SDS_P1;SDS_P2;PMS_P1;PMS_P2;Temp;Humidity;BMP_temperature;BMP_pressure;BME280_temperature;BME280_humidity;BME280_pressure;Samples;Min_cycle;Max_cycle;Signal;HPM_P1;HPM_P2
2022/05/10 00:00:21;;;;;;;10.20;4.12;;;;;;;13.43;74.69;101885.03;1788817;79;25734;-59
2022/05/10 00:02:54;;;;;;;6.42;4.45;;;;;;;13.52;74.56;101881.19;1731702;79;25800;-59
2022/05/10 00:05:25;;;;;;;11.00;4.20;;;;;;;13.57;74.47;101885.23;1724712;81;25641;-59
2022/05/10 00:07:53;;;;;;;9.38;4.30;;;;;;;13.61;74.31;101879.06;1724472;83;27617;-59
2022/05/10 00:10:21;;;;;;;8.35;4.12;;;;;;;13.64;74.42;101883.34;1724648;83;25619;-59
2022/05/10 00:12:50;;;;;;;6.08;3.72;;;;;;;13.65;74.19;101879.19;1724937;82;26319;-59
2022/05/10 00:15:17;;;;;;;4.30;3.90;;;;;;;13.68;73.97;101872.66;1724735;83;25710;-58
2022/05/10 00:17:44;;;;;;;9.50;4.15;;;;;;;13.70;73.76;101879.64;1724960;83;25721;-58
2022/05/10 00:20:17;;;;;;;7.97;3.70;;;;;;;13.69;73.90;101873.87;1724608;83;27649;-58
2022/05/10 00:22:46;;;;;;;4.92;3.67;;;;;;;13.65;73.62;101872.43;1724463;83;53736;-59
2022/05/10 00:25:18;;;;;;;8.85;3.90;;;;;;;13.66;73.45;101871.45;1724501;83;25832;-59
2022/05/10 00:27:45;;;;;;;6.17;4.03;;;;;;;13.68;73.51;101873.50;1724081;83;25826;-59
2022/05/10 00:30:13;;;;;;;8.40;3.62;;;;;;;13.71;73.48;101873.25;1724804;83;25808;-58
2022/05/10 00:32:42;;;;;;;7.83;4.22;;;;;;;13.73;73.45;101877.17;1733927;82;28266;-59
2022/05/10 00:35:16;;;;;;;7.10;3.42;;;;;;;13.72;73.51;101875.45;1743342;82;25776;-59
2022/05/10 00:37:46;;;;;;;8.15;3.92;;;;;;;13.73;73.44;101875.81;1743066;82;25728;-58
2022/05/10 00:40:17;;;;;;;9.10;3.77;;;;;;;13.74;73.43;101866.72;1743267;82;26008;-58
2022/05/10 00:42:52;;;;;;;5.05;3.70;;;;;;;13.76;73.43;101867.45;1743516;81;25495;-58
2022/05/10 00:45:25;;;;;;;4.22;3.70;;;;;;;13.80;73.41;101867.57;1743228;81;27641;-58
2022/05/10 00:48:13;;;;;;;4.33;3.05;;;;;;;13.80;73.19;101863.98;1743138;82;25775;-59
2022/05/10 00:50:57;;;;;;;4.95;3.65;;;;;;;13.81;73.14;101863.01;1746447;81;25739;-58
2022/05/10 00:53:30;;;;;;;4.30;3.52;;;;;;;13.81;73.00;101859.80;1748428;81;25824;-59
2022/05/10 00:56:11;;;;;;;6.25;3.75;;;;;;;13.82;72.96;101858.81;1746399;82;25977;-59
2022/05/10 00:58:45;;;;;;;5.75;3.67;;;;;;;13.82;72.75;101869.62;1727560;83;27555;-59
2022/05/10 01:01:16;;;;;;;8.03;4.70;;;;;;;13.81;72.55;101870.61;1729629;82;25944;-59
2022/05/10 01:04:03;;;;;;;7.20;4.20;;;;;;;13.83;72.70;101866.45;1737918;82;25733;-59
2022/05/10 01:06:46;;;;;;;6.97;4.33;;;;;;;13.84;72.83;101870.36;1731398;82;26555;-59
2022/05/10 01:09:24;;;;;;;8.23;3.77;;;;;;;13.82;72.73;101862.86;1684565;81;25792;-59
2022/05/10 01:12:14;;;;;;;10.25;4.20;;;;;;;13.83;72.73;101866.45;1716930;82;27473;-59
2022/05/10 01:14:51;;;;;;;6.62;4.45;;;;;;;13.84;72.85;101866.30;1738380;82;25925;-59
2022/05/10 01:17:18;;;;;;;12.73;4.75;;;;;;;13.83;72.57;101858.33;1738007;81;25721;-59
2022/05/10 01:19:45;;;;;;;6.58;4.10;;;;;;;13.75;72.46;101853.56;1738452;82;25885;-59
2022/05/10 01:22:47;;;;;;;7.67;4.12;;;;;;;13.74;72.72;101854.55;1738146;82;25943;-59
2022/05/10 01:25:45;;;;;;;12.07;4.50;;;;;;;13.73;72.76;101852.36;1738349;81;28358;-59
2022/05/10 01:28:23;;;;;;;5.97;3.98;;;;;;;13.74;72.82;101854.55;1738004;82;25726;-59
2022/05/10 01:30:51;;;;;;;7.92;4.72;;;;;;;13.73;72.78;101846.95;1738321;82;25737;-59
2022/05/10 01:33:32;;;;;;;7.95;4.00;;;;;;;13.66;72.75;101844.41;1732692;82;25651;-59
2022/05/10 01:36:04;;;;;;;10.43;4.67;;;;;;;13.63;72.87;101841.95;1730933;82;25773;-59
2022/05/10 01:38:58;;;;;;;8.05;4.60;;;;;;;13.63;73.21;101843.81;1730671;81;27470;-59
2022/05/10 01:41:46;;;;;;;7.10;4.08;;;;;;;13.58;73.05;101846.39;1730903;82;25812;-59
2022/05/10 01:44:44;;;;;;;8.25;4.47;;;;;;;13.57;73.09;101847.89;1730963;82;25732;-59
2022/05/10 01:47:22;;;;;;;7.20;4.10;;;;;;;13.53;72.94;101843.23;1731030;81;25876;-59
2022/05/10 01:50:09;;;;;;;8.40;4.53;;;;;;;13.49;72.70;101838.22;1730891;82;25810;-59
2022/05/10 01:53:05;;;;;;;6.45;4.67;;;;;;;13.42;72.58;101844.11;1730273;82;27477;-60
2022/05/10 01:55:36;;;;;;;15.68;5.10;;;;;;;13.36;72.69;101840.55;1729215;82;25894;-59
2022/05/10 01:58:14;;;;;;;8.58;4.65;;;;;;;13.26;72.51;101839.59;1730670;81;25761;-59
2022/05/10 02:00:46;;;;;;;7.75;4.60;;;;;;;13.20;72.43;101844.17;1730331;82;25788;-59
2022/05/10 02:03:45;;;;;;;6.50;4.67;;;;;;;13.11;72.36;101842.59;1737929;82;26034;-59
2022/05/10 02:06:38;;;;;;;7.95;4.62;;;;;;;13.02;72.20;101847.41;1737862;81;28462;-59
2022/05/10 02:09:28;;;;;;;13.58;4.67;;;;;;;12.93;72.33;101849.00;1736717;82;25828;-59
2022/05/10 02:12:03;;;;;;;9.05;4.03;;;;;;;12.86;72.62;101850.49;1737818;82;25681;-59
2022/05/10 02:14:48;;;;;;;6.70;3.77;;;;;;;12.82;73.01;101851.71;1738087;82;25739;-59
2022/05/10 02:17:39;;;;;;;12.98;4.35;;;;;;;12.79;73.36;101858.73;1738115;82;25839;-60
2022/05/10 02:20:14;;;;;;;8.20;3.85;;;;;;;12.76;73.28;101851.75;1737561;82;27498;-59
2022/05/10 02:22:49;;;;;;;4.62;3.75;;;;;;;12.76;73.71;101860.31;1722171;82;27300;-59
2022/05/10 02:25:21;;;;;;;5.08;4.30;;;;;;;12.76;73.99;101859.84;1737921;81;25472;-59
2022/05/10 02:27:53;;;;;;;7.80;3.58;;;;;;;12.75;74.01;101856.77;1736987;82;25929;-59
2022/05/10 02:30:25;;;;;;;7.40;4.37;;;;;;;12.78;74.18;101857.86;1738014;81;25761;-59
2022/05/10 02:33:08;;;;;;;8.90;4.50;;;;;;;12.79;74.14;101856.03;1734095;82;27596;-59
2022/05/10 02:35:59;;;;;;;8.55;3.72;;;;;;;12.79;74.37;101855.52;1730514;82;25805;-59
2022/05/10 02:38:37;;;;;;;4.40;4.00;;;;;;;12.78;74.21;101851.61;1730616;82;25855;-59
2022/05/10 02:41:12;;;;;;;5.37;4.10;;;;;;;12.80;74.48;101859.11;1730601;81;25808;-59
2022/05/10 02:43:58;;;;;;;10.13;4.08;;;;;;;12.81;74.45;101858.97;1730835;82;25798;-59
2022/05/10 02:46:26;;;;;;;6.60;4.25;;;;;;;12.85;74.54;101858.23;1727464;82;27499;-59
2022/05/10 02:48:54;;;;;;;8.05;4.00;;;;;;;12.87;74.47;101863.48;1730644;82;26074;-59
2022/05/10 02:51:21;;;;;;;5.35;3.75;;;;;;;12.90;74.50;101865.48;1737182;82;25796;-59
2022/05/10 02:53:49;;;;;;;10.35;4.60;;;;;;;12.95;74.59;101863.76;1738077;82;27928;-59
2022/05/10 02:56:23;;;;;;;8.30;4.00;;;;;;;13.01;74.73;101864.59;1738210;82;25685;-59
2022/05/10 02:59:20;;;;;;;7.37;4.10;;;;;;;13.08;74.66;101869.86;1738232;82;28335;-59
2022/05/10 03:02:02;;;;;;;4.90;3.83;;;;;;;13.10;74.39;101873.77;1726930;82;25790;-60
2022/05/10 03:04:36;;;;;;;5.55;4.20;;;;;;;13.13;74.27;101874.37;1714556;83;25513;-59
2022/05/10 03:07:06;;;;;;;10.60;5.50;;;;;;;13.19;74.25;101879.77;1714544;83;25811;-59
2022/05/10 03:09:33;;;;;;;6.85;4.20;;;;;;;13.21;74.11;101883.72;1714743;83;25731;-60
2022/05/10 03:12:05;;;;;;;7.80;4.30;;;;;;;13.24;74.12;101877.56;1714566;83;28556;-59
2022/05/10 03:14:33;;;;;;;6.78;4.25;;;;;;;13.28;74.04;101883.06;1714756;81;25900;-60
2022/05/10 03:16:59;;;;;;;4.55;4.10;;;;;;;13.30;74.08;101883.80;1714418;82;25746;-59
2022/05/10 03:19:26;;;;;;;5.08;3.42;;;;;;;13.29;74.11;101883.94;1714500;83;25812;-59
2022/05/10 03:21:53;;;;;;;4.37;3.40;;;;;;;13.26;73.70;101882.36;1714412;83;25757;-60
2022/05/10 03:24:20;;;;;;;7.83;3.35;;;;;;;13.29;73.97;101879.38;1737137;81;27539;-59
2022/05/10 03:26:51;;;;;;;7.60;5.10;;;;;;;13.33;74.01;101881.33;1743290;82;26361;-59
2022/05/10 03:29:19;;;;;;;7.20;3.80;;;;;;;13.38;74.14;101886.36;1743692;81;25529;-59
2022/05/10 03:31:46;;;;;;;8.70;4.50;;;;;;;13.42;74.16;101886.02;1746855;80;25773;-59
2022/05/10 03:37:00;;;;;;;4.95;2.92;;;;;;;13.53;74.18;101892.38;1775153;80;27485;-59
2022/05/10 03:39:27;;;;;;;8.68;4.33;;;;;;;13.55;73.88;101895.30;1775103;80;25790;-59
2022/05/10 03:41:54;;;;;;;6.55;3.20;;;;;;;13.58;73.94;101897.77;1775062;80;25747;-59
2022/05/10 03:44:21;;;;;;;6.53;2.58;;;;;;;13.64;73.99;101904.51;1775576;80;25972;-59
2022/05/10 03:46:50;;;;;;;4.80;3.37;;;;;;;13.66;73.99;101903.89;1775192;80;25804;-59
2022/05/10 03:49:17;;;;;;;5.37;3.40;;;;;;;13.65;73.69;101905.34;1775350;80;27514;-60
2022/05/10 03:51:44;;;;;;;4.50;3.70;;;;;;;13.67;73.75;101897.98;1785711;80;25832;-59
2022/05/10 03:54:10;;;;;;;9.00;3.80;;;;;;;13.72;74.06;101903.37;1786158;80;25764;-60
2022/05/10 03:56:37;;;;;;;5.10;3.20;;;;;;;13.80;74.15;101901.86;1785946;80;25726;-59
2022/05/10 03:59:05;;;;;;;7.00;3.20;;;;;;;13.86;74.10;101898.14;1784143;79;25980;-59
2022/05/10 04:01:32;;;;;;;5.50;3.12;;;;;;;13.93;74.26;101903.90;1769739;80;28313;-58
2022/05/10 04:04:01;;;;;;;6.28;3.37;;;;;;;13.98;74.10;101902.16;1744508;82;25812;-58
2022/05/10 04:06:30;;;;;;;4.35;3.65;;;;;;;14.02;73.79;101897.70;1744400;82;25860;-58
2022/05/10 04:08:58;;;;;;;5.42;3.60;;;;;;;14.07;74.02;101895.95;1744562;80;25739;-58
2022/05/10 04:11:25;;;;;;;10.30;4.60;;;;;;;13.99;74.46;101899.30;1744537;80;25669;-58
2022/05/10 04:13:53;;;;;;;8.43;4.17;;;;;;;13.87;74.57;101901.22;1744404;82;27544;-58
2022/05/10 04:16:22;;;;;;;5.42;3.87;;;;;;;13.80;74.94;101895.09;1744752;82;25808;-58
2022/05/10 04:18:49;;;;;;;8.45;4.00;;;;;;;13.71;74.39;101900.30;1744513;82;25886;-58
2022/05/10 04:21:17;;;;;;;14.15;5.08;;;;;;;13.71;74.36;101903.00;1744328;82;27912;-59
2022/05/10 04:23:44;;;;;;;5.33;4.03;;;;;;;13.68;74.89;101895.13;1744366;82;25645;-58
2022/05/10 04:26:14;;;;;;;7.90;4.78;;;;;;;13.68;74.79;101895.13;1744330;82;27484;-58
2022/05/10 04:28:43;;;;;;;15.53;5.53;;;;;;;13.68;74.42;101897.84;1744234;80;25859;-58
2022/05/10 04:31:10;;;;;;;12.23;7.72;;;;;;;13.73;74.27;101900.16;1744427;82;25778;-58
2022/05/10 04:33:38;;;;;;;8.45;4.72;;;;;;;13.78;74.16;101907.41;1726030;81;26836;-58
2022/05/10 04:36:06;;;;;;;6.95;4.33;;;;;;;13.83;73.96;101896.20;1723675;83;25758;-59
2022/05/10 04:38:33;;;;;;;5.03;3.50;;;;;;;13.90;73.81;101899.58;1723420;83;27448;-60
2022/05/10 04:43:45;;;;;;;11.75;4.10;;;;;;;14.05;73.13;101906.89;1723665;83;25715;-59
2022/05/10 04:46:12;;;;;;;5.87;3.25;;;;;;;14.14;73.09;101907.09;1723396;81;25939;-60
2022/05/10 04:48:39;;;;;;;4.95;3.25;;;;;;;14.16;72.72;101908.70;1723616;82;25957;-59
2022/05/10 04:51:06;;;;;;;10.95;4.00;;;;;;;14.20;72.49;101910.64;1762656;80;27521;-59
2022/05/10 04:53:34;;;;;;;7.78;3.58;;;;;;;14.23;72.51;101913.94;1773161;80;25963;-59
2022/05/10 04:56:03;;;;;;;11.03;3.90;;;;;;;14.27;72.51;101917.23;1772969;79;25676;-59
2022/05/10 04:58:30;;;;;;;4.85;3.10;;;;;;;14.28;72.76;101924.37;1776763;80;26611;-59
2022/05/10 05:01:02;;;;;;;8.98;3.80;;;;;;;14.29;73.24;101934.20;1777141;80;25660;-59
2022/05/10 05:03:28;;;;;;;8.18;3.27;;;;;;;14.23;72.88;101932.88;1715195;83;27452;-59
2022/05/10 05:05:55;;;;;;;11.38;3.02;;;;;;;14.13;72.56;101934.66;1718035;83;27330;-59
2022/05/10 05:08:22;;;;;;;8.95;5.95;;;;;;;14.13;72.94;101931.08;1718264;82;25672;-59
2022/05/10 05:10:49;;;;;;;5.47;2.83;;;;;;;14.06;72.68;101928.06;1718612;82;26536;-59
2022/05/10 05:13:16;;;;;;;10.38;4.30;;;;;;;14.06;72.70;101923.49;1737900;80;25723;-60
2022/05/10 05:15:43;;;;;;;5.00;3.12;;;;;;;14.13;72.44;101924.31;1720053;83;27413;-59
2022/05/10 05:18:10;;;;;;;13.68;3.98;;;;;;;14.18;71.94;101928.85;1719522;83;25680;-60
2022/05/10 05:20:41;;;;;;;9.00;3.20;;;;;;;14.19;71.44;101927.36;1720137;82;25737;-60
2022/05/10 05:23:12;;;;;;;8.88;3.17;;;;;;;14.24;70.71;101922.91;1719604;83;26782;-59
2022/05/10 05:25:39;;;;;;;4.83;2.90;;;;;;;14.26;70.84;101929.05;1718837;83;26534;-59
2022/05/10 05:28:09;;;;;;;11.57;3.77;;;;;;;14.39;71.06;101926.14;1719701;83;28180;-59
2022/05/10 05:30:36;;;;;;;12.37;3.50;;;;;;;14.52;70.71;101932.19;1751603;81;25766;-59
2022/05/10 05:33:03;;;;;;;7.80;3.62;;;;;;;14.68;70.59;101938.52;1702605;83;25744;-59
2022/05/10 05:35:31;;;;;;;6.90;3.62;;;;;;;14.83;70.03;101940.88;1738639;81;25817;-59
2022/05/10 05:37:58;;;;;;;8.90;3.60;;;;;;;14.97;69.55;101939.15;1738514;81;25704;-59
2022/05/10 05:40:25;;;;;;;11.25;3.98;;;;;;;15.09;69.19;101939.05;1738486;81;28354;-59
2022/05/10 05:42:54;;;;;;;12.78;4.17;;;;;;;15.21;68.93;101937.94;1738697;81;25756;-60
2022/05/10 05:45:24;;;;;;;8.03;4.00;;;;;;;15.30;68.64;101933.04;1738521;82;25471;-60
2022/05/10 05:47:53;;;;;;;18.30;4.22;;;;;;;15.41;68.11;101936.16;1738993;81;25970;-59
2022/05/10 05:50:24;;;;;;;6.12;3.83;;;;;;;15.48;67.52;101935.07;1739698;81;25831;-59
2022/05/10 05:52:53;;;;;;;9.70;4.25;;;;;;;15.55;67.15;101933.54;1740953;82;27444;-60
2022/05/10 05:55:22;;;;;;;9.50;3.72;;;;;;;15.62;66.59;101936.52;1740824;82;25656;-60
2022/05/10 05:57:49;;;;;;;11.50;4.53;;;;;;;15.58;64.73;101936.46;1740433;81;25697;-59
2022/05/10 06:00:21;;;;;;;6.53;3.08;;;;;;;15.53;64.61;101938.72;1735083;82;26643;-59
2022/05/10 06:02:50;;;;;;;6.92;3.25;;;;;;;15.56;62.94;101941.16;1742955;82;25736;-59
2022/05/10 06:05:18;;;;;;;11.60;3.58;;;;;;;15.56;63.68;101942.52;1746760;81;27485;-59
2022/05/10 06:07:45;;;;;;;12.68;3.87;;;;;;;15.65;63.66;101937.09;1768062;81;25857;-59
2022/05/10 06:10:12;;;;;;;7.65;3.87;;;;;;;15.66;62.54;101942.03;1769541;80;25839;-61
2022/05/10 06:12:40;;;;;;;13.43;3.77;;;;;;;15.76;63.01;101941.55;1770083;81;26441;-61
2022/05/10 06:15:11;;;;;;;11.00;3.55;;;;;;;15.88;62.74;101945.01;1768904;80;25766;-61
2022/05/10 06:17:41;;;;;;;11.43;3.95;;;;;;;15.92;61.99;101949.65;1745240;81;27463;-61
2022/05/10 06:20:11;;;;;;;8.48;3.10;;;;;;;16.01;61.97;101953.34;1737324;82;25737;-61
2022/05/10 06:22:38;;;;;;;9.43;3.70;;;;;;;16.07;61.60;101952.80;1737707;82;25732;-61
2022/05/10 06:25:07;;;;;;;14.03;3.47;;;;;;;16.15;61.71;101952.05;1737298;82;25799;-60
2022/05/10 06:27:35;;;;;;;9.65;3.52;;;;;;;16.28;61.89;101950.75;1737848;81;26122;-61
2022/05/10 06:30:02;;;;;;;6.58;3.55;;;;;;;16.48;61.83;101957.52;1748089;81;27388;-61
2022/05/10 06:32:31;;;;;;;11.80;4.67;;;;;;;16.62;60.18;101958.08;1742434;81;25698;-59
2022/05/10 06:35:00;;;;;;;8.50;4.10;;;;;;;16.72;58.64;101957.52;1733963;82;25554;-60
2022/05/10 06:40:15;;;;;;;9.58;4.10;;;;;;;16.96;57.27;101952.12;1734915;82;25765;-60
2022/05/10 06:42:43;;;;;;;5.62;3.83;;;;;;;17.03;55.69;101947.79;1735123;82;28367;-59
2022/05/10 06:45:16;;;;;;;12.37;3.98;;;;;;;17.12;55.00;101955.56;1727944;80;25690;-59
2022/05/10 06:47:47;;;;;;;8.58;3.65;;;;;;;17.27;53.55;101949.09;1759649;81;25794;-60
2022/05/10 06:50:18;;;;;;;11.25;4.97;;;;;;;17.49;52.45;101949.17;1754123;81;25852;-60
2022/05/10 06:52:46;;;;;;;12.55;4.45;;;;;;;17.59;50.42;101955.93;1732421;82;25986;-60
2022/05/10 06:55:13;;;;;;;14.15;4.22;;;;;;;17.70;50.98;101951.63;1732520;82;27510;-60
2022/05/10 06:57:39;;;;;;;9.35;4.10;;;;;;;17.87;49.96;101958.59;1736148;81;25884;-60
2022/05/10 07:00:09;;;;;;;12.37;4.20;;;;;;;17.94;50.90;101952.87;1737266;82;25702;-60
2022/05/10 07:02:37;;;;;;;16.48;4.03;;;;;;;18.11;51.57;101945.22;1726736;82;26548;-60
2022/05/10 07:05:07;;;;;;;9.63;5.35;;;;;;;18.30;51.14;101948.26;1736412;81;26116;-60
2022/05/10 07:07:34;;;;;;;13.95;3.75;;;;;;;18.48;50.42;101954.17;1732747;81;27456;-60
2022/05/10 07:10:03;;;;;;;15.90;5.03;;;;;;;18.63;50.28;101950.88;1733149;82;25748;-60
2022/05/10 07:12:30;;;;;;;8.68;4.10;;;;;;;18.80;49.78;101950.45;1732390;82;25717;-59
2022/05/10 07:14:57;;;;;;;19.07;4.40;;;;;;;18.95;49.69;101955.70;1732506;81;25831;-60
2022/05/10 07:17:27;;;;;;;13.20;4.87;;;;;;;19.03;49.03;101958.46;1737874;82;25475;-60
2022/05/10 07:19:59;;;;;;;16.80;4.85;;;;;;;19.14;48.39;101954.58;1742053;82;27635;-60
2022/05/10 07:22:26;;;;;;;16.52;4.58;;;;;;;19.23;47.98;101956.81;1742868;81;25851;-60
2022/05/10 07:24:53;;;;;;;11.28;4.10;;;;;;;19.31;47.23;101951.91;1743212;81;25669;-59
2022/05/10 07:27:19;;;;;;;11.48;4.37;;;;;;;19.41;46.94;101949.05;1754466;81;26762;-59
2022/05/10 07:29:46;;;;;;;11.00;3.65;;;;;;;19.47;46.27;101951.11;1762380;81;25820;-60
2022/05/10 07:32:14;;;;;;;6.20;3.40;;;;;;;19.53;46.64;101952.67;1760250;80;27459;-61
2022/05/10 07:34:43;;;;;;;8.10;3.80;;;;;;;19.58;46.40;101948.08;1758096;80;26387;-61
2022/05/10 07:37:10;;;;;;;14.47;4.12;;;;;;;19.46;46.12;101952.97;1755653;80;25816;-60
2022/05/10 07:39:38;;;;;;;13.25;4.10;;;;;;;19.44;46.25;101959.62;1755888;80;25745;-61
2022/05/10 07:42:05;;;;;;;7.40;3.90;;;;;;;19.42;45.71;101949.38;1756091;81;25523;-60
2022/05/10 07:44:33;;;;;;;11.97;4.30;;;;;;;19.43;45.80;101953.81;1755166;80;27645;-61
2022/05/10 07:47:00;;;;;;;16.17;4.53;;;;;;;19.40;45.67;101959.09;1743033;82;25731;-61
2022/05/10 07:49:28;;;;;;;19.80;4.42;;;;;;;19.32;44.09;101959.91;1747622;80;25512;-61
2022/05/10 07:51:54;;;;;;;12.37;4.20;;;;;;;19.26;42.87;101956.49;1785821;80;25810;-61
2022/05/10 07:54:21;;;;;;;14.85;4.03;;;;;;;19.16;42.82;101957.12;1786182;80;25737;-61
2022/05/10 07:56:47;;;;;;;7.83;4.17;;;;;;;19.03;43.33;101954.37;1762711;80;28502;-59
2022/05/10 07:59:15;;;;;;;15.80;3.55;;;;;;;19.04;42.92;101956.08;1765515;81;25716;-59
2022/05/10 08:01:42;;;;;;;9.30;4.15;;;;;;;18.99;42.60;101949.41;1761213;80;25795;-61
2022/05/10 08:04:09;;;;;;;19.17;4.78;;;;;;;18.92;43.18;101954.61;1749634;80;25834;-61
2022/05/10 08:06:36;;;;;;;20.17;4.40;;;;;;;18.85;43.46;101951.67;1770644;80;26090;-61
2022/05/10 08:09:03;;;;;;;16.10;4.15;;;;;;;18.77;43.50;101951.14;1773285;80;27462;-61
2022/05/10 08:11:30;;;;;;;19.95;4.47;;;;;;;18.73;42.83;101956.55;1775280;80;25862;-61
2022/05/10 08:13:56;;;;;;;17.07;4.03;;;;;;;18.70;42.89;101952.78;1775588;80;25688;-61
2022/05/10 08:16:26;;;;;;;13.08;3.70;;;;;;;18.63;41.90;101950.88;1775563;80;25746;-61
2022/05/10 08:18:52;;;;;;;15.90;4.33;;;;;;;18.56;41.09;101950.14;1775580;80;25788;-61
2022/05/10 08:21:19;;;;;;;11.73;4.00;;;;;;;18.51;41.25;101948.41;1775445;80;27514;-61
2022/05/10 08:23:49;;;;;;;25.72;5.15;;;;;;;18.51;41.88;101948.41;1775296;80;25992;-60
2022/05/10 08:26:15;;;;;;;17.05;4.45;;;;;;;18.59;41.90;101945.73;1756176;80;25772;-59
2022/05/10 08:28:42;;;;;;;14.47;4.00;;;;;;;18.63;41.47;101944.91;1748473;81;26885;-59
2022/05/10 08:31:09;;;;;;;11.65;4.58;;;;;;;18.71;41.33;101940.02;1748447;82;25713;-60
2022/05/10 08:33:39;;;;;;;18.67;4.78;;;;;;;18.80;41.93;101939.55;1753051;80;27449;-60
2022/05/10 08:36:11;;;;;;;13.25;4.85;;;;;;;18.84;41.80;101940.94;1749808;81;25727;-59
2022/05/10 08:38:38;;;;;;;9.95;4.05;;;;;;;18.82;40.70;101934.80;1748851;81;25759;-60
2022/05/10 08:41:19;;;;;;;28.32;4.30;;;;;;;18.81;40.79;101939.89;1748328;82;26505;-60
2022/05/10 08:43:51;;;;;;;24.12;4.40;;;;;;;18.97;40.86;101938.64;1748536;81;25822;-60
2022/05/10 08:46:31;;;;;;;16.55;4.62;;;;;;;19.17;40.82;101930.20;1748367;81;27458;-61
2022/05/10 08:49:11;;;;;;;12.88;4.33;;;;;;;19.35;41.34;101928.22;1747955;81;25712;-59
2022/05/10 08:51:38;;;;;;;12.60;4.00;;;;;;;19.49;40.53;101925.88;1697678;82;25838;-62
2022/05/10 08:54:05;;;;;;;10.03;3.00;;;;;;;19.61;39.49;101926.41;1717194;83;25780;-59
2022/05/10 08:56:42;;;;;;;11.57;2.90;;;;;;;19.70;37.67;101922.67;1751119;81;25722;-60
2022/05/10 08:59:35;;;;;;;17.80;3.40;;;;;;;19.82;36.58;101919.94;1752154;80;27416;-60
2022/05/10 09:02:12;;;;;;;8.40;2.90;;;;;;;19.95;38.06;101922.72;1734565;82;26081;-59
2022/05/10 09:05:11;;;;;;;16.45;3.90;;;;;;;20.21;37.82;101914.35;1752484;80;25774;-59
2022/05/10 09:07:49;;;;;;;11.97;3.00;;;;;;;20.46;36.20;101914.31;1783464;80;26213;-59
2022/05/10 09:10:27;;;;;;;17.10;2.98;;;;;;;20.69;34.97;101908.95;1746269;80;25835;-59
2022/05/10 09:13:02;;;;;;;17.00;4.47;;;;;;;20.93;35.20;101906.66;1743432;81;27299;-59
2022/05/10 09:15:36;;;;;;;9.00;3.15;;;;;;;21.20;34.86;101907.73;1743287;81;26263;-59
2022/05/10 09:18:13;;;;;;;12.43;3.05;;;;;;;21.57;33.80;101906.16;1743351;81;25787;-59
2022/05/10 09:20:45;;;;;;;5.10;2.15;;;;;;;21.87;33.16;101911.26;1769158;80;26751;-61
2022/05/10 09:23:27;;;;;;;4.60;2.15;;;;;;;22.20;30.04;101910.12;1783709;80;25714;-61
2022/05/10 09:25:56;;;;;;;5.17;2.10;;;;;;;22.61;29.74;101898.75;1777794;80;27483;-61
2022/05/10 09:28:34;;;;;;;8.45;2.45;;;;;;;23.04;27.85;101896.69;1743577;80;25792;-61
2022/05/10 09:37:35;;;;;;;6.28;1.65;;;;;;;24.51;26.97;101889.02;1764209;80;25815;-60
2022/05/10 09:40:19;;;;;;;5.20;1.85;;;;;;;24.97;24.11;101882.61;1743424;82;27483;-60
2022/05/10 09:42:54;;;;;;;2.77;0.93;;;;;;;25.26;25.02;101884.73;1743385;81;25657;-62
2022/05/10 09:45:27;;;;;;;2.60;1.12;;;;;;;25.70;23.00;101885.25;1743492;81;25455;-60
2022/05/10 09:48:13;;;;;;;6.78;1.05;;;;;;;26.05;21.81;101880.40;1760936;80;26611;-60
2022/05/10 09:50:52;;;;;;;5.30;1.32;;;;;;;26.23;20.96;101883.06;1776331;79;25766;-62
2022/05/10 09:53:31;;;;;;;9.85;1.57;;;;;;;26.54;21.85;101872.70;1780801;79;28466;-62
2022/05/10 09:56:03;;;;;;;4.15;1.15;;;;;;;27.03;21.66;101870.95;1780507;79;25986;-61
2022/05/10 09:58:41;;;;;;;3.63;1.33;;;;;;;27.60;20.98;101861.92;1782589;80;25742;-62
2022/05/10 10:01:11;;;;;;;6.50;1.22;;;;;;;27.92;20.07;101855.81;1742728;80;26614;-59
2022/05/10 10:03:41;;;;;;;4.47;1.20;;;;;;;28.20;19.28;101856.42;1744603;81;25860;-60
2022/05/10 10:06:19;;;;;;;10.78;1.85;;;;;;;28.39;20.62;101859.52;1738209;81;26896;-60
2022/05/10 10:08:56;;;;;;;7.12;1.85;;;;;;;28.76;20.78;101856.48;1710389;81;25743;-61
2022/05/10 10:11:31;;;;;;;6.30;1.57;;;;;;;29.09;19.65;101842.75;1727705;82;26401;-60
2022/05/10 10:14:09;;;;;;;10.18;1.45;;;;;;;29.53;20.10;101839.76;1727276;82;25931;-60
2022/05/10 10:16:52;;;;;;;7.80;1.30;;;;;;;30.18;19.77;101836.64;1732426;81;25843;-60
2022/05/10 10:19:24;;;;;;;6.97;1.87;;;;;;;30.81;19.74;101832.17;1762260;81;27485;-60
2022/05/10 10:22:11;;;;;;;19.23;2.30;;;;;;;31.30;19.17;101833.68;1762387;81;25865;-60
2022/05/10 10:24:50;;;;;;;8.20;1.65;;;;;;;31.35;18.84;101829.06;1745943;81;25713;-60
2022/05/10 10:28:01;;;;;;;7.33;1.87;;;;;;;31.51;18.45;101817.64;1762785;81;26771;-60
2022/05/10 10:30:35;;;;;;;7.67;1.57;;;;;;;31.86;17.86;101808.77;1762514;81;25635;-60
2022/05/10 10:33:27;;;;;;;5.65;1.50;;;;;;;31.86;18.19;101814.33;1737200;80;27465;-62
2022/05/10 10:35:59;;;;;;;3.75;1.70;;;;;;;32.09;18.94;101816.63;1720098;80;25854;-61
2022/05/10 10:38:43;;;;;;;6.05;1.45;;;;;;;31.89;17.81;101822.18;1718801;81;25502;-61
2022/05/10 10:41:18;;;;;;;12.10;1.40;;;;;;;31.46;17.50;101807.83;1712324;82;26058;-59
2022/05/10 10:43:51;;;;;;;3.12;1.32;;;;;;;31.63;17.27;101809.77;1718720;82;25782;-59
2022/05/10 10:46:48;;;;;;;5.75;1.60;;;;;;;31.93;16.88;101806.64;1718370;83;28491;-60
2022/05/10 10:49:20;;;;;;;4.20;1.85;;;;;;;32.49;15.96;101804.37;1719354;81;26088;-60
2022/05/10 10:51:49;;;;;;;7.60;1.80;;;;;;;32.45;16.33;101801.27;1762490;80;25739;-60
2022/05/10 10:54:21;;;;;;;6.20;1.42;;;;;;;32.68;16.61;101807.64;1762469;80;26449;-60
2022/05/10 10:57:08;;;;;;;2.80;1.37;;;;;;;32.96;15.24;101802.14;1755077;80;25764;-59
2022/05/10 11:00:12;;;;;;;10.08;1.27;;;;;;;32.60;14.80;101795.58;1720320;81;28561;-59
2022/05/10 11:03:16;;;;;;;6.15;1.32;;;;;;;32.23;15.21;101794.86;1728837;82;25724;-61
2022/05/10 11:06:03;;;;;;;5.75;1.70;;;;;;;32.44;15.99;101791.22;1753137;81;25823;-61
2022/05/10 11:09:08;;;;;;;9.35;1.35;;;;;;;33.07;16.33;101790.00;1747830;81;25803;-61
2022/05/10 11:12:12;;;;;;;4.30;1.42;;;;;;;33.76;15.20;101780.52;1742497;81;25535;-60
2022/05/10 11:15:01;;;;;;;6.17;1.45;;;;;;;34.14;14.37;101777.14;1742724;81;27496;-61
2022/05/10 11:17:36;;;;;;;3.40;1.55;;;;;;;34.05;15.42;101771.80;1742823;81;27301;-62
2022/05/10 11:20:27;;;;;;;5.70;1.50;;;;;;;33.99;15.41;101770.92;1745460;81;25699;-60
2022/05/10 11:23:06;;;;;;;8.33;1.87;;;;;;;33.44;15.95;101761.89;1745838;81;25815;-60
2022/05/10 11:25:50;;;;;;;1.77;1.30;;;;;;;33.17;15.17;101764.98;1744901;81;25782;-59
2022/05/10 11:28:42;;;;;;;8.05;1.70;;;;;;;32.72;15.61;101756.45;1754001;81;28252;-61
2022/05/10 11:31:26;;;;;;;5.70;1.52;;;;;;;32.39;16.24;101754.97;1761128;81;25715;-60
2022/05/10 11:34:30;;;;;;;6.83;1.50;;;;;;;31.72;16.27;101761.55;1744667;81;25785;-59
2022/05/10 11:37:02;;;;;;;3.12;1.45;;;;;;;30.56;16.46;101753.38;1759138;81;26565;-61
2022/05/10 11:39:58;;;;;;;9.48;1.85;;;;;;;30.76;16.77;101746.81;1759428;81;25891;-61
2022/05/10 11:43:09;;;;;;;5.58;1.65;;;;;;;31.57;17.17;101742.09;1755941;81;28252;-60
2022/05/10 11:46:26;;;;;;;6.28;1.62;;;;;;;32.22;16.05;101738.30;1760012;81;25787;-60
2022/05/10 11:49:19;;;;;;;12.25;2.10;;;;;;;33.08;15.81;101725.62;1750385;80;25767;-61
2022/05/10 11:51:54;;;;;;;13.03;1.90;;;;;;;33.82;16.26;101730.06;1741087;81;25850;-61
2022/05/10 11:54:41;;;;;;;5.12;1.90;;;;;;;34.42;16.14;101728.44;1759126;81;25711;-60
2022/05/10 11:57:18;;;;;;;5.45;1.50;;;;;;;34.54;14.67;101727.33;1759033;81;28442;-60
2022/05/10 11:59:46;;;;;;;4.53;1.42;;;;;;;35.02;14.53;101726.59;1758620;81;25838;-60
2022/05/10 12:02:33;;;;;;;4.03;1.37;;;;;;;35.12;14.40;101711.77;1740652;81;25766;-60
2022/05/10 12:05:26;;;;;;;5.40;1.70;;;;;;;35.51;14.27;101713.14;1728097;81;25813;-61
2022/05/10 12:08:04;;;;;;;22.82;2.55;;;;;;;34.57;14.55;101712.81;1726861;81;26450;-59